Accueil
METAR-TAF:

METAR-TAF

Aéroports :

Aéroport de Comiso

Comiso, Italie

latitude: 36-59-30N, longitude: 14-36-25E, altitude: 190 m

Observation

Le bulletin a été fait il y a 28 minutes, à 23:50 UTC
Vent 4 kt de nord-est
Température 15°C
Humidité 88%
Pression 1022 hPa
Visibilité 10 km ou plus

METAR: LICB 252350Z AUTO 05004KT 9999 NCD 15/13 Q1022

Heure: 02:18 (00:18 UTC)

Prévision

Le bulletin a été fait il y a 7 heures et 18 minutes, à 17:00 UTC
Prévision valable du 25 à 18 UTC au 26 à 03 UTC
Vent 10 kt de ouest/sud-ouest
Visibilité 10 km ou plus
Quelques nuages à une hauteur de 3000 ft
Evoluant progressivement
du 25 à 18 UTC au 25 à 20 UTC
Vent 5 kt de direction variable

TAF: LICB 251700Z 2518/2603 24010KT 9999 FEW030 BECMG 2518/2520 VRB05KT

Observations et prévisions météorologiques de plus de 4000 aéroports (messages METAR et TAF).

Les stations disponibles sont représentées par des disques jaunes et rouges sur la carte.

Passer la souris dessus pour voir le nom de la station.

Cliquer dessus pour voir les observations et prévisions météorologiques.

Pour changer de carte: cliquez sur les boutons verts avec une croix noire pour zoomer, sur le bouton vert avec un tiret pour effectuer un zoom arrière, ou sur les flèches vertes pour les cartes adjacentes.


METAR-TAF: